sensor_id;sensor_type;location;lat;lon;timestamp;P1;durP1;ratioP1;P2;durP2;ratioP2
22774;SDS011;11554;51.106;3.684;2023-05-14T00:00:00;48.90;;;32.70;;
22774;SDS011;11554;51.106;3.684;2023-05-14T00:05:00;52.40;;;33.50;;
22774;SDS011;11554;51.106;3.684;2023-05-14T00:10:00;52.40;;;33.50;;
22774;SDS011;11554;51.106;3.684;2023-05-14T00:15:00;46.60;;;30.10;;
22774;SDS011;11554;51.106;3.684;2023-05-14T00:20:00;46.60;;;30.10;;
22774;SDS011;11554;51.106;3.684;2023-05-14T00:25:00;50.90;;;32.50;;
22774;SDS011;11554;51.106;3.684;2023-05-14T00:30:01;50.90;;;32.50;;
22774;SDS011;11554;51.106;3.684;2023-05-14T00:35:00;46.70;;;29.70;;
22774;SDS011;11554;51.106;3.684;2023-05-14T00:40:00;46.70;;;29.70;;
22774;SDS011;11554;51.106;3.684;2023-05-14T00:45:00;49.10;;;30.50;;
22774;SDS011;11554;51.106;3.684;2023-05-14T00:50:01;49.10;;;30.50;;
22774;SDS011;11554;51.106;3.684;2023-05-14T00:55:03;51.00;;;31.70;;
22774;SDS011;11554;51.106;3.684;2023-05-14T01:00:00;51.00;;;31.70;;
22774;SDS011;11554;51.106;3.684;2023-05-14T01:05:01;43.80;;;29.80;;
22774;SDS011;11554;51.106;3.684;2023-05-14T01:10:04;43.80;;;29.80;;
22774;SDS011;11554;51.106;3.684;2023-05-14T01:15:06;55.40;;;33.10;;
22774;SDS011;11554;51.106;3.684;2023-05-14T01:20:01;55.40;;;33.10;;
22774;SDS011;11554;51.106;3.684;2023-05-14T01:25:00;52.30;;;34.50;;
22774;SDS011;11554;51.106;3.684;2023-05-14T01:30:07;52.30;;;34.50;;
22774;SDS011;11554;51.106;3.684;2023-05-14T01:35:00;50.20;;;31.80;;
22774;SDS011;11554;51.106;3.684;2023-05-14T01:40:01;50.20;;;31.80;;
22774;SDS011;11554;51.106;3.684;2023-05-14T01:45:00;42.80;;;29.10;;
22774;SDS011;11554;51.106;3.684;2023-05-14T01:50:00;42.80;;;29.10;;
22774;SDS011;11554;51.106;3.684;2023-05-14T01:55:00;52.90;;;32.30;;
22774;SDS011;11554;51.106;3.684;2023-05-14T02:00:00;52.90;;;32.30;;
22774;SDS011;11554;51.106;3.684;2023-05-14T02:05:00;48.30;;;31.10;;
22774;SDS011;11554;51.106;3.684;2023-05-14T02:10:00;48.30;;;31.10;;
22774;SDS011;11554;51.106;3.684;2023-05-14T02:15:00;47.00;;;29.80;;
22774;SDS011;11554;51.106;3.684;2023-05-14T02:20:00;47.00;;;29.80;;
22774;SDS011;11554;51.106;3.684;2023-05-14T02:25:00;47.50;;;31.80;;
22774;SDS011;11554;51.106;3.684;2023-05-14T02:30:00;47.50;;;31.80;;
22774;SDS011;11554;51.106;3.684;2023-05-14T02:35:00;49.80;;;31.70;;
22774;SDS011;11554;51.106;3.684;2023-05-14T02:40:00;49.80;;;31.70;;
22774;SDS011;11554;51.106;3.684;2023-05-14T02:45:00;50.40;;;32.30;;
22774;SDS011;11554;51.106;3.684;2023-05-14T02:50:00;50.40;;;32.30;;
22774;SDS011;11554;51.106;3.684;2023-05-14T02:55:00;50.70;;;33.50;;
22774;SDS011;11554;51.106;3.684;2023-05-14T03:00:00;50.70;;;33.50;;
22774;SDS011;11554;51.106;3.684;2023-05-14T03:05:00;50.00;;;30.90;;
22774;SDS011;11554;51.106;3.684;2023-05-14T03:10:00;50.00;;;30.90;;
22774;SDS011;11554;51.106;3.684;2023-05-14T03:15:00;50.70;;;32.00;;
22774;SDS011;11554;51.106;3.684;2023-05-14T03:20:00;50.70;;;32.00;;
22774;SDS011;11554;51.106;3.684;2023-05-14T03:25:00;45.90;;;30.40;;
22774;SDS011;11554;51.106;3.684;2023-05-14T03:30:00;45.90;;;30.40;;
22774;SDS011;11554;51.106;3.684;2023-05-14T03:35:00;51.70;;;32.10;;
22774;SDS011;11554;51.106;3.684;2023-05-14T03:40:00;51.70;;;32.10;;
22774;SDS011;11554;51.106;3.684;2023-05-14T03:45:00;52.30;;;32.40;;
22774;SDS011;11554;51.106;3.684;2023-05-14T03:50:00;52.30;;;32.40;;
22774;SDS011;11554;51.106;3.684;2023-05-14T03:55:00;57.40;;;34.90;;
22774;SDS011;11554;51.106;3.684;2023-05-14T04:00:00;57.40;;;34.90;;
22774;SDS011;11554;51.106;3.684;2023-05-14T04:05:00;49.40;;;32.10;;
22774;SDS011;11554;51.106;3.684;2023-05-14T04:10:01;49.40;;;32.10;;
22774;SDS011;11554;51.106;3.684;2023-05-14T04:15:00;50.90;;;32.70;;
22774;SDS011;11554;51.106;3.684;2023-05-14T04:20:00;50.90;;;32.70;;
22774;SDS011;11554;51.106;3.684;2023-05-14T04:25:00;49.70;;;32.10;;
22774;SDS011;11554;51.106;3.684;2023-05-14T04:30:00;49.70;;;32.10;;
22774;SDS011;11554;51.106;3.684;2023-05-14T04:35:00;50.00;;;34.70;;
22774;SDS011;11554;51.106;3.684;2023-05-14T04:40:00;50.00;;;34.70;;
22774;SDS011;11554;51.106;3.684;2023-05-14T04:45:00;56.10;;;35.30;;
22774;SDS011;11554;51.106;3.684;2023-05-14T04:50:00;56.10;;;35.30;;
22774;SDS011;11554;51.106;3.684;2023-05-14T04:55:00;50.30;;;33.60;;
22774;SDS011;11554;51.106;3.684;2023-05-14T05:00:00;50.30;;;33.60;;
22774;SDS011;11554;51.106;3.684;2023-05-14T05:05:01;52.70;;;34.00;;
22774;SDS011;11554;51.106;3.684;2023-05-14T05:10:01;52.70;;;34.00;;
22774;SDS011;11554;51.106;3.684;2023-05-14T05:15:00;47.10;;;32.90;;
22774;SDS011;11554;51.106;3.684;2023-05-14T05:20:00;47.10;;;32.90;;
22774;SDS011;11554;51.106;3.684;2023-05-14T05:25:00;46.40;;;30.80;;
22774;SDS011;11554;51.106;3.684;2023-05-14T05:30:00;46.40;;;30.80;;
22774;SDS011;11554;51.106;3.684;2023-05-14T05:35:00;48.10;;;29.80;;
22774;SDS011;11554;51.106;3.684;2023-05-14T05:40:00;48.10;;;29.80;;
22774;SDS011;11554;51.106;3.684;2023-05-14T05:45:00;41.30;;;28.70;;
22774;SDS011;11554;51.106;3.684;2023-05-14T05:50:00;41.30;;;28.70;;
22774;SDS011;11554;51.106;3.684;2023-05-14T05:55:00;39.30;;;26.40;;
22774;SDS011;11554;51.106;3.684;2023-05-14T06:00:00;39.30;;;26.40;;
22774;SDS011;11554;51.106;3.684;2023-05-14T06:05:00;37.50;;;27.50;;
22774;SDS011;11554;51.106;3.684;2023-05-14T06:10:00;37.50;;;27.50;;
22774;SDS011;11554;51.106;3.684;2023-05-14T06:15:00;44.30;;;27.20;;
22774;SDS011;11554;51.106;3.684;2023-05-14T06:20:00;44.30;;;27.20;;
22774;SDS011;11554;51.106;3.684;2023-05-14T06:25:00;31.20;;;25.70;;
22774;SDS011;11554;51.106;3.684;2023-05-14T06:30:00;31.20;;;25.70;;
22774;SDS011;11554;51.106;3.684;2023-05-14T06:35:00;37.30;;;27.20;;
22774;SDS011;11554;51.106;3.684;2023-05-14T06:40:00;37.30;;;27.20;;
22774;SDS011;11554;51.106;3.684;2023-05-14T06:45:00;39.60;;;28.00;;
22774;SDS011;11554;51.106;3.684;2023-05-14T06:50:00;39.60;;;28.00;;
22774;SDS011;11554;51.106;3.684;2023-05-14T06:55:00;36.10;;;26.00;;
22774;SDS011;11554;51.106;3.684;2023-05-14T07:00:00;36.10;;;26.00;;
22774;SDS011;11554;51.106;3.684;2023-05-14T07:05:00;37.00;;;26.10;;
22774;SDS011;11554;51.106;3.684;2023-05-14T07:10:00;37.00;;;26.10;;
22774;SDS011;11554;51.106;3.684;2023-05-14T07:15:00;34.10;;;26.90;;
22774;SDS011;11554;51.106;3.684;2023-05-14T07:20:00;34.10;;;26.90;;
22774;SDS011;11554;51.106;3.684;2023-05-14T07:25:00;37.80;;;27.10;;
22774;SDS011;11554;51.106;3.684;2023-05-14T07:30:00;37.80;;;27.10;;
22774;SDS011;11554;51.106;3.684;2023-05-14T07:35:00;33.60;;;26.70;;
22774;SDS011;11554;51.106;3.684;2023-05-14T07:40:00;33.60;;;26.70;;
22774;SDS011;11554;51.106;3.684;2023-05-14T07:45:00;32.20;;;25.80;;
22774;SDS011;11554;51.106;3.684;2023-05-14T07:50:00;32.20;;;25.80;;
22774;SDS011;11554;51.106;3.684;2023-05-14T07:55:01;30.40;;;24.30;;
22774;SDS011;11554;51.106;3.684;2023-05-14T08:00:00;30.40;;;24.30;;
22774;SDS011;11554;51.106;3.684;2023-05-14T08:05:00;29.90;;;24.20;;
22774;SDS011;11554;51.106;3.684;2023-05-14T08:10:01;29.90;;;24.20;;
22774;SDS011;11554;51.106;3.684;2023-05-14T08:15:01;27.10;;;23.60;;
22774;SDS011;11554;51.106;3.684;2023-05-14T08:20:00;27.10;;;23.60;;
22774;SDS011;11554;51.106;3.684;2023-05-14T08:25:00;26.40;;;21.70;;
22774;SDS011;11554;51.106;3.684;2023-05-14T08:30:00;26.40;;;21.70;;
22774;SDS011;11554;51.106;3.684;2023-05-14T08:35:00;27.30;;;22.30;;
22774;SDS011;11554;51.106;3.684;2023-05-14T08:40:00;27.30;;;22.30;;
22774;SDS011;11554;51.106;3.684;2023-05-14T08:45:02;29.00;;;21.30;;
22774;SDS011;11554;51.106;3.684;2023-05-14T08:50:02;29.00;;;21.30;;
22774;SDS011;11554;51.106;3.684;2023-05-14T08:55:02;30.10;;;22.40;;
22774;SDS011;11554;51.106;3.684;2023-05-14T09:00:01;30.10;;;22.40;;
22774;SDS011;11554;51.106;3.684;2023-05-14T09:05:01;24.40;;;21.60;;
22774;SDS011;11554;51.106;3.684;2023-05-14T09:10:01;24.40;;;21.60;;
22774;SDS011;11554;51.106;3.684;2023-05-14T09:15:00;22.10;;;18.00;;
22774;SDS011;11554;51.106;3.684;2023-05-14T09:20:00;22.10;;;18.00;;
22774;SDS011;11554;51.106;3.684;2023-05-14T09:25:02;19.50;;;15.50;;
22774;SDS011;11554;51.106;3.684;2023-05-14T09:30:05;19.50;;;15.50;;
22774;SDS011;11554;51.106;3.684;2023-05-14T09:35:08;19.40;;;15.70;;
22774;SDS011;11554;51.106;3.684;2023-05-14T09:40:05;19.40;;;15.70;;
22774;SDS011;11554;51.106;3.684;2023-05-14T09:45:00;18.10;;;13.80;;
22774;SDS011;11554;51.106;3.684;2023-05-14T09:50:00;18.10;;;13.80;;
22774;SDS011;11554;51.106;3.684;2023-05-14T09:55:00;16.20;;;12.70;;
22774;SDS011;11554;51.106;3.684;2023-05-14T10:00:00;16.20;;;12.70;;
22774;SDS011;11554;51.106;3.684;2023-05-14T10:05:01;15.10;;;12.80;;
22774;SDS011;11554;51.106;3.684;2023-05-14T10:10:02;15.10;;;12.80;;
22774;SDS011;11554;51.106;3.684;2023-05-14T10:15:03;14.30;;;12.80;;
22774;SDS011;11554;51.106;3.684;2023-05-14T10:20:01;14.30;;;12.80;;
22774;SDS011;11554;51.106;3.684;2023-05-14T10:25:02;16.90;;;13.20;;
22774;SDS011;11554;51.106;3.684;2023-05-14T10:30:05;16.90;;;13.20;;
22774;SDS011;11554;51.106;3.684;2023-05-14T10:35:00;13.50;;;12.00;;
22774;SDS011;11554;51.106;3.684;2023-05-14T10:40:01;13.50;;;12.00;;
22774;SDS011;11554;51.106;3.684;2023-05-14T10:45:01;14.90;;;12.20;;
22774;SDS011;11554;51.106;3.684;2023-05-14T10:50:03;14.90;;;12.20;;
22774;SDS011;11554;51.106;3.684;2023-05-14T10:55:01;13.80;;;12.00;;
22774;SDS011;11554;51.106;3.684;2023-05-14T11:00:01;13.80;;;12.00;;
22774;SDS011;11554;51.106;3.684;2023-05-14T11:05:01;14.50;;;11.60;;
22774;SDS011;11554;51.106;3.684;2023-05-14T11:10:02;14.50;;;11.60;;
22774;SDS011;11554;51.106;3.684;2023-05-14T11:15:03;11.50;;;9.90;;
22774;SDS011;11554;51.106;3.684;2023-05-14T11:20:01;11.50;;;9.90;;
22774;SDS011;11554;51.106;3.684;2023-05-14T11:25:00;15.20;;;10.90;;
22774;SDS011;11554;51.106;3.684;2023-05-14T11:30:01;15.20;;;10.90;;
22774;SDS011;11554;51.106;3.684;2023-05-14T11:35:00;15.50;;;11.70;;
22774;SDS011;11554;51.106;3.684;2023-05-14T11:40:00;15.50;;;11.70;;
22774;SDS011;11554;51.106;3.684;2023-05-14T11:45:00;13.60;;;11.30;;
22774;SDS011;11554;51.106;3.684;2023-05-14T11:50:00;13.60;;;11.30;;
22774;SDS011;11554;51.106;3.684;2023-05-14T11:55:01;13.40;;;11.20;;
22774;SDS011;11554;51.106;3.684;2023-05-14T12:00:00;13.40;;;11.20;;
22774;SDS011;11554;51.106;3.684;2023-05-14T12:05:00;16.90;;;10.80;;
22774;SDS011;11554;51.106;3.684;2023-05-14T12:10:02;16.90;;;10.80;;
22774;SDS011;11554;51.106;3.684;2023-05-14T12:15:00;14.60;;;9.20;;
22774;SDS011;11554;51.106;3.684;2023-05-14T12:20:00;14.60;;;9.20;;
22774;SDS011;11554;51.106;3.684;2023-05-14T12:25:00;12.10;;;8.80;;
22774;SDS011;11554;51.106;3.684;2023-05-14T12:30:01;12.10;;;8.80;;
22774;SDS011;11554;51.106;3.684;2023-05-14T12:35:00;17.00;;;9.40;;
22774;SDS011;11554;51.106;3.684;2023-05-14T12:40:00;17.00;;;9.40;;
22774;SDS011;11554;51.106;3.684;2023-05-14T12:45:00;14.90;;;9.30;;
22774;SDS011;11554;51.106;3.684;2023-05-14T12:50:00;14.90;;;9.30;;
22774;SDS011;11554;51.106;3.684;2023-05-14T12:55:00;13.60;;;9.80;;
22774;SDS011;11554;51.106;3.684;2023-05-14T13:00:00;13.60;;;9.80;;
22774;SDS011;11554;51.106;3.684;2023-05-14T13:05:00;14.20;;;8.50;;
22774;SDS011;11554;51.106;3.684;2023-05-14T13:10:00;14.20;;;8.50;;
22774;SDS011;11554;51.106;3.684;2023-05-14T13:15:00;14.10;;;10.00;;
22774;SDS011;11554;51.106;3.684;2023-05-14T13:20:00;14.10;;;10.00;;
22774;SDS011;11554;51.106;3.684;2023-05-14T13:25:00;13.50;;;10.30;;
22774;SDS011;11554;51.106;3.684;2023-05-14T13:30:00;13.50;;;10.30;;
22774;SDS011;11554;51.106;3.684;2023-05-14T13:35:00;15.90;;;10.60;;
22774;SDS011;11554;51.106;3.684;2023-05-14T13:40:00;15.90;;;10.60;;
22774;SDS011;11554;51.106;3.684;2023-05-14T13:45:01;11.80;;;9.10;;
22774;SDS011;11554;51.106;3.684;2023-05-14T13:50:00;11.80;;;9.10;;
22774;SDS011;11554;51.106;3.684;2023-05-14T13:55:00;11.90;;;8.60;;
22774;SDS011;11554;51.106;3.684;2023-05-14T14:00:00;11.90;;;8.60;;
22774;SDS011;11554;51.106;3.684;2023-05-14T14:05:00;13.10;;;9.10;;
22774;SDS011;11554;51.106;3.684;2023-05-14T14:10:00;13.10;;;9.10;;
22774;SDS011;11554;51.106;3.684;2023-05-14T14:15:00;13.90;;;8.70;;
22774;SDS011;11554;51.106;3.684;2023-05-14T14:20:00;13.90;;;8.70;;
22774;SDS011;11554;51.106;3.684;2023-05-14T14:25:00;11.40;;;7.50;;
22774;SDS011;11554;51.106;3.684;2023-05-14T14:30:00;11.40;;;7.50;;
22774;SDS011;11554;51.106;3.684;2023-05-14T14:35:00;11.10;;;7.70;;
22774;SDS011;11554;51.106;3.684;2023-05-14T14:40:00;11.10;;;7.70;;
22774;SDS011;11554;51.106;3.684;2023-05-14T14:45:00;10.40;;;6.50;;
22774;SDS011;11554;51.106;3.684;2023-05-14T14:50:00;10.40;;;6.50;;
22774;SDS011;11554;51.106;3.684;2023-05-14T14:55:00;10.80;;;6.30;;
22774;SDS011;11554;51.106;3.684;2023-05-14T15:00:00;10.80;;;6.30;;
22774;SDS011;11554;51.106;3.684;2023-05-14T15:05:00;13.60;;;7.80;;
22774;SDS011;11554;51.106;3.684;2023-05-14T15:10:00;13.60;;;7.80;;
22774;SDS011;11554;51.106;3.684;2023-05-14T15:15:00;13.90;;;8.90;;
22774;SDS011;11554;51.106;3.684;2023-05-14T15:20:00;13.90;;;8.90;;
22774;SDS011;11554;51.106;3.684;2023-05-14T15:25:00;14.80;;;7.60;;
22774;SDS011;11554;51.106;3.684;2023-05-14T15:30:01;14.80;;;7.60;;
22774;SDS011;11554;51.106;3.684;2023-05-14T15:35:00;12.30;;;8.30;;
22774;SDS011;11554;51.106;3.684;2023-05-14T15:40:00;12.30;;;8.30;;
22774;SDS011;11554;51.106;3.684;2023-05-14T15:45:00;13.00;;;8.80;;
22774;SDS011;11554;51.106;3.684;2023-05-14T15:50:01;13.00;;;8.80;;
22774;SDS011;11554;51.106;3.684;2023-05-14T15:55:00;13.30;;;9.90;;
22774;SDS011;11554;51.106;3.684;2023-05-14T16:00:00;13.30;;;9.90;;
22774;SDS011;11554;51.106;3.684;2023-05-14T16:05:00;15.10;;;10.60;;
22774;SDS011;11554;51.106;3.684;2023-05-14T16:10:00;15.10;;;10.60;;
22774;SDS011;11554;51.106;3.684;2023-05-14T16:15:00;13.50;;;10.70;;
22774;SDS011;11554;51.106;3.684;2023-05-14T16:20:00;13.50;;;10.70;;
22774;SDS011;11554;51.106;3.684;2023-05-14T16:25:00;11.50;;;9.50;;
22774;SDS011;11554;51.106;3.684;2023-05-14T16:30:00;11.50;;;9.50;;
22774;SDS011;11554;51.106;3.684;2023-05-14T16:35:00;14.50;;;11.80;;
22774;SDS011;11554;51.106;3.684;2023-05-14T16:40:00;14.50;;;11.80;;
22774;SDS011;11554;51.106;3.684;2023-05-14T16:45:00;16.10;;;10.30;;
22774;SDS011;11554;51.106;3.684;2023-05-14T16:50:00;16.10;;;10.30;;
22774;SDS011;11554;51.106;3.684;2023-05-14T16:55:00;11.50;;;9.00;;
22774;SDS011;11554;51.106;3.684;2023-05-14T17:00:00;11.50;;;9.00;;
22774;SDS011;11554;51.106;3.684;2023-05-14T17:05:00;13.30;;;8.90;;
22774;SDS011;11554;51.106;3.684;2023-05-14T17:10:00;13.30;;;8.90;;
22774;SDS011;11554;51.106;3.684;2023-05-14T17:15:00;13.00;;;10.20;;
22774;SDS011;11554;51.106;3.684;2023-05-14T17:20:00;13.00;;;10.20;;
22774;SDS011;11554;51.106;3.684;2023-05-14T17:25:00;15.00;;;11.10;;
22774;SDS011;11554;51.106;3.684;2023-05-14T17:30:00;15.00;;;11.10;;
22774;SDS011;11554;51.106;3.684;2023-05-14T17:35:00;13.70;;;10.80;;
22774;SDS011;11554;51.106;3.684;2023-05-14T17:40:00;13.70;;;10.80;;
22774;SDS011;11554;51.106;3.684;2023-05-14T17:45:00;16.60;;;12.00;;
22774;SDS011;11554;51.106;3.684;2023-05-14T17:50:00;16.60;;;12.00;;
22774;SDS011;11554;51.106;3.684;2023-05-14T17:55:00;15.10;;;11.60;;
22774;SDS011;11554;51.106;3.684;2023-05-14T18:00:00;15.10;;;11.60;;
22774;SDS011;11554;51.106;3.684;2023-05-14T18:05:00;13.80;;;12.10;;
22774;SDS011;11554;51.106;3.684;2023-05-14T18:10:00;13.80;;;12.10;;
22774;SDS011;11554;51.106;3.684;2023-05-14T18:15:00;15.20;;;11.90;;
22774;SDS011;11554;51.106;3.684;2023-05-14T18:20:00;15.20;;;11.90;;
22774;SDS011;11554;51.106;3.684;2023-05-14T18:25:00;18.40;;;12.80;;
22774;SDS011;11554;51.106;3.684;2023-05-14T18:30:00;18.40;;;12.80;;
22774;SDS011;11554;51.106;3.684;2023-05-14T18:35:00;16.80;;;13.10;;
22774;SDS011;11554;51.106;3.684;2023-05-14T18:40:00;16.80;;;13.10;;
22774;SDS011;11554;51.106;3.684;2023-05-14T18:45:00;19.10;;;13.50;;
22774;SDS011;11554;51.106;3.684;2023-05-14T18:50:00;19.10;;;13.50;;
22774;SDS011;11554;51.106;3.684;2023-05-14T18:55:00;15.70;;;12.40;;
22774;SDS011;11554;51.106;3.684;2023-05-14T19:00:00;15.70;;;12.40;;
22774;SDS011;11554;51.106;3.684;2023-05-14T19:05:00;14.80;;;12.10;;
22774;SDS011;11554;51.106;3.684;2023-05-14T19:10:00;14.80;;;12.10;;
22774;SDS011;11554;51.106;3.684;2023-05-14T19:15:00;15.00;;;11.90;;
22774;SDS011;11554;51.106;3.684;2023-05-14T19:20:00;15.00;;;11.90;;
22774;SDS011;11554;51.106;3.684;2023-05-14T19:25:00;18.40;;;13.20;;
22774;SDS011;11554;51.106;3.684;2023-05-14T19:30:00;18.40;;;13.20;;
22774;SDS011;11554;51.106;3.684;2023-05-14T19:35:00;15.10;;;13.20;;
22774;SDS011;11554;51.106;3.684;2023-05-14T19:40:00;15.10;;;13.20;;
22774;SDS011;11554;51.106;3.684;2023-05-14T19:45:00;24.30;;;16.80;;
22774;SDS011;11554;51.106;3.684;2023-05-14T19:50:00;24.30;;;16.80;;
22774;SDS011;11554;51.106;3.684;2023-05-14T19:55:00;18.50;;;15.60;;
22774;SDS011;11554;51.106;3.684;2023-05-14T20:00:00;18.50;;;15.60;;
22774;SDS011;11554;51.106;3.684;2023-05-14T20:05:00;25.00;;;19.00;;
22774;SDS011;11554;51.106;3.684;2023-05-14T20:10:00;25.00;;;19.00;;
22774;SDS011;11554;51.106;3.684;2023-05-14T20:15:00;19.30;;;14.30;;
22774;SDS011;11554;51.106;3.684;2023-05-14T20:20:00;19.30;;;14.30;;
22774;SDS011;11554;51.106;3.684;2023-05-14T20:25:00;21.20;;;15.00;;
22774;SDS011;11554;51.106;3.684;2023-05-14T20:30:00;21.20;;;15.00;;
22774;SDS011;11554;51.106;3.684;2023-05-14T20:35:00;18.20;;;12.60;;
22774;SDS011;11554;51.106;3.684;2023-05-14T20:40:00;18.20;;;12.60;;
22774;SDS011;11554;51.106;3.684;2023-05-14T20:45:00;19.90;;;14.90;;
22774;SDS011;11554;51.106;3.684;2023-05-14T20:50:00;19.90;;;14.90;;
22774;SDS011;11554;51.106;3.684;2023-05-14T20:55:00;17.50;;;13.60;;
22774;SDS011;11554;51.106;3.684;2023-05-14T21:00:00;17.50;;;13.60;;
22774;SDS011;11554;51.106;3.684;2023-05-14T21:05:00;16.70;;;12.70;;
22774;SDS011;11554;51.106;3.684;2023-05-14T21:10:00;16.70;;;12.70;;
22774;SDS011;11554;51.106;3.684;2023-05-14T21:15:00;17.90;;;14.60;;
22774;SDS011;11554;51.106;3.684;2023-05-14T21:20:00;17.90;;;14.60;;
22774;SDS011;11554;51.106;3.684;2023-05-14T21:25:00;21.30;;;16.30;;
22774;SDS011;11554;51.106;3.684;2023-05-14T21:30:00;21.30;;;16.30;;
22774;SDS011;11554;51.106;3.684;2023-05-14T21:35:00;20.90;;;16.60;;
22774;SDS011;11554;51.106;3.684;2023-05-14T21:40:00;20.90;;;16.60;;
22774;SDS011;11554;51.106;3.684;2023-05-14T21:45:00;22.00;;;18.40;;
22774;SDS011;11554;51.106;3.684;2023-05-14T21:50:00;22.00;;;18.40;;
22774;SDS011;11554;51.106;3.684;2023-05-14T21:55:00;23.70;;;18.60;;
22774;SDS011;11554;51.106;3.684;2023-05-14T22:00:00;23.70;;;18.60;;
22774;SDS011;11554;51.106;3.684;2023-05-14T22:05:00;23.70;;;18.80;;
22774;SDS011;11554;51.106;3.684;2023-05-14T22:10:00;23.70;;;18.80;;
22774;SDS011;11554;51.106;3.684;2023-05-14T22:15:00;20.70;;;16.80;;
22774;SDS011;11554;51.106;3.684;2023-05-14T22:20:01;20.70;;;16.80;;
22774;SDS011;11554;51.106;3.684;2023-05-14T22:25:00;19.30;;;16.80;;
22774;SDS011;11554;51.106;3.684;2023-05-14T22:30:00;19.30;;;16.80;;
22774;SDS011;11554;51.106;3.684;2023-05-14T22:35:00;25.20;;;19.20;;
22774;SDS011;11554;51.106;3.684;2023-05-14T22:40:00;25.20;;;19.20;;
22774;SDS011;11554;51.106;3.684;2023-05-14T22:45:00;23.60;;;18.40;;
22774;SDS011;11554;51.106;3.684;2023-05-14T22:50:00;23.60;;;18.40;;
22774;SDS011;11554;51.106;3.684;2023-05-14T22:55:00;23.70;;;19.00;;
22774;SDS011;11554;51.106;3.684;2023-05-14T23:00:00;23.70;;;19.00;;
22774;SDS011;11554;51.106;3.684;2023-05-14T23:05:00;23.40;;;19.80;;
22774;SDS011;11554;51.106;3.684;2023-05-14T23:10:00;23.40;;;19.80;;
22774;SDS011;11554;51.106;3.684;2023-05-14T23:15:00;26.60;;;20.10;;
22774;SDS011;11554;51.106;3.684;2023-05-14T23:20:00;26.60;;;20.10;;
22774;SDS011;11554;51.106;3.684;2023-05-14T23:25:00;29.30;;;23.10;;
22774;SDS011;11554;51.106;3.684;2023-05-14T23:30:01;29.30;;;23.10;;
22774;SDS011;11554;51.106;3.684;2023-05-14T23:35:00;24.40;;;18.90;;
22774;SDS011;11554;51.106;3.684;2023-05-14T23:40:00;24.40;;;18.90;;
22774;SDS011;11554;51.106;3.684;2023-05-14T23:45:00;24.90;;;19.70;;
22774;SDS011;11554;51.106;3.684;2023-05-14T23:50:00;24.90;;;19.70;;
22774;SDS011;11554;51.106;3.684;2023-05-14T23:55:00;21.10;;;17.50;;
